sensor_id;sensor_type;location;lat;lon;timestamp;P1;durP1;ratioP1;P2;durP2;ratioP2
33279;SDS011;20403;43.114;12.434;2023-08-21T00:01:14;16.20;;;11.02;;
33279;SDS011;20403;43.114;12.434;2023-08-21T00:03:39;14.13;;;11.50;;
33279;SDS011;20403;43.114;12.434;2023-08-21T00:06:05;20.25;;;11.80;;
33279;SDS011;20403;43.114;12.434;2023-08-21T00:08:30;15.15;;;11.45;;
33279;SDS011;20403;43.114;12.434;2023-08-21T00:10:55;17.10;;;11.32;;
33279;SDS011;20403;43.114;12.434;2023-08-21T00:13:21;20.55;;;10.73;;
33279;SDS011;20403;43.114;12.434;2023-08-21T00:15:46;19.13;;;11.48;;
33279;SDS011;20403;43.114;12.434;2023-08-21T00:18:12;12.52;;;10.88;;
33279;SDS011;20403;43.114;12.434;2023-08-21T00:20:37;13.77;;;10.57;;
33279;SDS011;20403;43.114;12.434;2023-08-21T00:23:04;12.38;;;10.07;;
33279;SDS011;20403;43.114;12.434;2023-08-21T00:25:29;14.30;;;11.25;;
33279;SDS011;20403;43.114;12.434;2023-08-21T00:27:55;15.45;;;10.30;;
33279;SDS011;20403;43.114;12.434;2023-08-21T00:30:20;11.88;;;10.65;;
33279;SDS011;20403;43.114;12.434;2023-08-21T00:32:45;13.50;;;11.18;;
33279;SDS011;20403;43.114;12.434;2023-08-21T00:35:11;12.18;;;10.52;;
33279;SDS011;20403;43.114;12.434;2023-08-21T00:37:37;12.63;;;11.32;;
33279;SDS011;20403;43.114;12.434;2023-08-21T00:40:02;15.25;;;10.75;;
33279;SDS011;20403;43.114;12.434;2023-08-21T00:42:28;11.80;;;10.35;;
33279;SDS011;20403;43.114;12.434;2023-08-21T00:44:53;17.13;;;10.52;;
33279;SDS011;20403;43.114;12.434;2023-08-21T00:47:19;13.95;;;10.98;;
33279;SDS011;20403;43.114;12.434;2023-08-21T00:49:44;16.42;;;10.68;;
33279;SDS011;20403;43.114;12.434;2023-08-21T00:52:10;11.70;;;10.18;;
33279;SDS011;20403;43.114;12.434;2023-08-21T00:54:38;12.98;;;10.77;;
33279;SDS011;20403;43.114;12.434;2023-08-21T00:57:04;14.52;;;10.80;;
33279;SDS011;20403;43.114;12.434;2023-08-21T00:59:30;17.52;;;10.77;;
33279;SDS011;20403;43.114;12.434;2023-08-21T01:01:56;11.98;;;10.20;;
33279;SDS011;20403;43.114;12.434;2023-08-21T01:04:21;12.77;;;10.43;;
33279;SDS011;20403;43.114;12.434;2023-08-21T01:06:50;12.30;;;10.15;;
33279;SDS011;20403;43.114;12.434;2023-08-21T01:14:44;12.05;;;10.85;;
33279;SDS011;20403;43.114;12.434;2023-08-21T01:17:11;12.70;;;10.70;;
33279;SDS011;20403;43.114;12.434;2023-08-21T01:19:43;11.95;;;10.65;;
33279;SDS011;20403;43.114;12.434;2023-08-21T01:22:11;16.77;;;11.20;;
33279;SDS011;20403;43.114;12.434;2023-08-21T01:24:37;12.50;;;10.73;;
33279;SDS011;20403;43.114;12.434;2023-08-21T01:27:02;13.93;;;10.73;;
33279;SDS011;20403;43.114;12.434;2023-08-21T01:29:28;10.75;;;9.65;;
33279;SDS011;20403;43.114;12.434;2023-08-21T01:34:46;15.25;;;10.43;;
33279;SDS011;20403;43.114;12.434;2023-08-21T01:37:12;11.73;;;10.25;;
33279;SDS011;20403;43.114;12.434;2023-08-21T01:39:38;12.52;;;10.32;;
33279;SDS011;20403;43.114;12.434;2023-08-21T01:42:04;15.70;;;10.63;;
33279;SDS011;20403;43.114;12.434;2023-08-21T01:44:30;11.98;;;9.90;;
33279;SDS011;20403;43.114;12.434;2023-08-21T01:46:55;16.25;;;9.98;;
33279;SDS011;20403;43.114;12.434;2023-08-21T01:49:20;12.38;;;10.68;;
33279;SDS011;20403;43.114;12.434;2023-08-21T01:51:46;12.20;;;10.38;;
33279;SDS011;20403;43.114;12.434;2023-08-21T01:54:12;12.65;;;10.13;;
33279;SDS011;20403;43.114;12.434;2023-08-21T01:56:37;17.00;;;10.77;;
33279;SDS011;20403;43.114;12.434;2023-08-21T01:59:03;13.50;;;10.25;;
33279;SDS011;20403;43.114;12.434;2023-08-21T02:01:29;13.57;;;10.80;;
33279;SDS011;20403;43.114;12.434;2023-08-21T02:03:55;12.43;;;10.43;;
33279;SDS011;20403;43.114;12.434;2023-08-21T02:06:20;15.48;;;10.52;;
33279;SDS011;20403;43.114;12.434;2023-08-21T02:08:46;11.60;;;9.70;;
33279;SDS011;20403;43.114;12.434;2023-08-21T02:11:11;13.18;;;11.00;;
33279;SDS011;20403;43.114;12.434;2023-08-21T02:13:36;12.38;;;10.50;;
33279;SDS011;20403;43.114;12.434;2023-08-21T02:16:02;20.20;;;11.13;;
33279;SDS011;20403;43.114;12.434;2023-08-21T02:18:27;15.05;;;11.70;;
33279;SDS011;20403;43.114;12.434;2023-08-21T02:20:53;16.52;;;10.90;;
33279;SDS011;20403;43.114;12.434;2023-08-21T02:23:18;15.45;;;11.18;;
33279;SDS011;20403;43.114;12.434;2023-08-21T02:25:44;17.45;;;11.93;;
33279;SDS011;20403;43.114;12.434;2023-08-21T02:28:09;13.50;;;11.38;;
33279;SDS011;20403;43.114;12.434;2023-08-21T02:30:34;14.48;;;11.07;;
33279;SDS011;20403;43.114;12.434;2023-08-21T02:33:00;13.20;;;11.73;;
33279;SDS011;20403;43.114;12.434;2023-08-21T02:35:25;12.75;;;10.85;;
33279;SDS011;20403;43.114;12.434;2023-08-21T02:37:51;13.30;;;11.40;;
33279;SDS011;20403;43.114;12.434;2023-08-21T02:40:16;12.15;;;10.75;;
33279;SDS011;20403;43.114;12.434;2023-08-21T02:42:42;13.57;;;11.77;;
33279;SDS011;20403;43.114;12.434;2023-08-21T02:45:07;13.38;;;10.73;;
33279;SDS011;20403;43.114;12.434;2023-08-21T02:47:42;12.25;;;10.95;;
33279;SDS011;20403;43.114;12.434;2023-08-21T02:50:08;20.45;;;11.50;;
33279;SDS011;20403;43.114;12.434;2023-08-21T02:52:35;12.98;;;11.18;;
33279;SDS011;20403;43.114;12.434;2023-08-21T02:55:01;16.30;;;12.25;;
33279;SDS011;20403;43.114;12.434;2023-08-21T02:57:27;16.20;;;12.93;;
33279;SDS011;20403;43.114;12.434;2023-08-21T02:59:53;15.80;;;12.25;;
33279;SDS011;20403;43.114;12.434;2023-08-21T03:02:19;15.45;;;11.30;;
33279;SDS011;20403;43.114;12.434;2023-08-21T03:04:44;12.82;;;11.40;;
33279;SDS011;20403;43.114;12.434;2023-08-21T03:07:10;14.48;;;11.82;;
33279;SDS011;20403;43.114;12.434;2023-08-21T03:09:36;17.42;;;12.25;;
33279;SDS011;20403;43.114;12.434;2023-08-21T03:12:02;15.60;;;11.95;;
33279;SDS011;20403;43.114;12.434;2023-08-21T03:14:28;14.25;;;11.63;;
33279;SDS011;20403;43.114;12.434;2023-08-21T03:16:54;14.73;;;11.57;;
33279;SDS011;20403;43.114;12.434;2023-08-21T03:19:19;15.52;;;11.63;;
33279;SDS011;20403;43.114;12.434;2023-08-21T03:21:45;15.35;;;11.25;;
33279;SDS011;20403;43.114;12.434;2023-08-21T03:24:10;17.48;;;11.75;;
33279;SDS011;20403;43.114;12.434;2023-08-21T03:26:36;13.23;;;11.20;;
33279;SDS011;20403;43.114;12.434;2023-08-21T03:29:01;13.25;;;11.85;;
33279;SDS011;20403;43.114;12.434;2023-08-21T03:31:27;12.75;;;10.98;;
33279;SDS011;20403;43.114;12.434;2023-08-21T03:33:52;17.40;;;11.77;;
33279;SDS011;20403;43.114;12.434;2023-08-21T03:36:18;14.70;;;11.93;;
33279;SDS011;20403;43.114;12.434;2023-08-21T03:38:44;15.45;;;12.05;;
33279;SDS011;20403;43.114;12.434;2023-08-21T03:41:10;16.10;;;11.70;;
33279;SDS011;20403;43.114;12.434;2023-08-21T03:43:36;14.23;;;11.45;;
33279;SDS011;20403;43.114;12.434;2023-08-21T03:46:02;14.80;;;11.38;;
33279;SDS011;20403;43.114;12.434;2023-08-21T03:48:28;15.32;;;12.20;;
33279;SDS011;20403;43.114;12.434;2023-08-21T03:50:53;15.05;;;11.82;;
33279;SDS011;20403;43.114;12.434;2023-08-21T03:53:19;17.52;;;11.90;;
33279;SDS011;20403;43.114;12.434;2023-08-21T03:55:44;19.67;;;12.00;;
33279;SDS011;20403;43.114;12.434;2023-08-21T03:58:09;14.93;;;12.65;;
33279;SDS011;20403;43.114;12.434;2023-08-21T04:00:35;15.15;;;12.30;;
33279;SDS011;20403;43.114;12.434;2023-08-21T04:03:00;20.30;;;12.80;;
33279;SDS011;20403;43.114;12.434;2023-08-21T04:05:26;16.30;;;11.90;;
33279;SDS011;20403;43.114;12.434;2023-08-21T04:07:51;18.50;;;12.13;;
33279;SDS011;20403;43.114;12.434;2023-08-21T04:10:17;14.43;;;11.50;;
33279;SDS011;20403;43.114;12.434;2023-08-21T04:12:42;21.20;;;12.75;;
33279;SDS011;20403;43.114;12.434;2023-08-21T04:15:08;14.23;;;12.65;;
33279;SDS011;20403;43.114;12.434;2023-08-21T04:17:34;16.42;;;12.35;;
33279;SDS011;20403;43.114;12.434;2023-08-21T04:19:59;15.25;;;12.70;;
33279;SDS011;20403;43.114;12.434;2023-08-21T04:22:25;19.15;;;11.98;;
33279;SDS011;20403;43.114;12.434;2023-08-21T04:24:50;13.85;;;11.80;;
33279;SDS011;20403;43.114;12.434;2023-08-21T04:27:15;15.52;;;11.55;;
33279;SDS011;20403;43.114;12.434;2023-08-21T04:29:41;27.02;;;11.63;;
33279;SDS011;20403;43.114;12.434;2023-08-21T04:32:06;23.33;;;12.68;;
33279;SDS011;20403;43.114;12.434;2023-08-21T04:34:32;24.45;;;11.93;;
33279;SDS011;20403;43.114;12.434;2023-08-21T04:36:58;30.83;;;12.80;;
33279;SDS011;20403;43.114;12.434;2023-08-21T04:39:23;23.73;;;12.18;;
33279;SDS011;20403;43.114;12.434;2023-08-21T04:41:49;24.20;;;12.32;;
33279;SDS011;20403;43.114;12.434;2023-08-21T04:44:14;23.42;;;13.18;;
33279;SDS011;20403;43.114;12.434;2023-08-21T04:46:40;19.00;;;12.30;;
33279;SDS011;20403;43.114;12.434;2023-08-21T04:49:05;22.77;;;12.35;;
33279;SDS011;20403;43.114;12.434;2023-08-21T04:51:30;20.52;;;11.90;;
33279;SDS011;20403;43.114;12.434;2023-08-21T04:53:56;18.25;;;12.18;;
33279;SDS011;20403;43.114;12.434;2023-08-21T04:56:22;27.42;;;12.60;;
33279;SDS011;20403;43.114;12.434;2023-08-21T04:58:47;16.80;;;11.68;;
33279;SDS011;20403;43.114;12.434;2023-08-21T05:01:12;14.98;;;11.93;;
33279;SDS011;20403;43.114;12.434;2023-08-21T05:03:38;18.45;;;12.38;;
33279;SDS011;20403;43.114;12.434;2023-08-21T05:06:03;17.23;;;12.60;;
33279;SDS011;20403;43.114;12.434;2023-08-21T05:08:29;16.90;;;12.70;;
33279;SDS011;20403;43.114;12.434;2023-08-21T05:11:03;18.63;;;11.82;;
33279;SDS011;20403;43.114;12.434;2023-08-21T05:13:28;15.88;;;11.68;;
33279;SDS011;20403;43.114;12.434;2023-08-21T05:15:54;18.02;;;12.55;;
33279;SDS011;20403;43.114;12.434;2023-08-21T05:18:22;20.65;;;12.63;;
33279;SDS011;20403;43.114;12.434;2023-08-21T05:20:48;22.75;;;13.15;;
33279;SDS011;20403;43.114;12.434;2023-08-21T05:23:14;18.58;;;12.63;;
33279;SDS011;20403;43.114;12.434;2023-08-21T05:25:40;23.83;;;12.63;;
33279;SDS011;20403;43.114;12.434;2023-08-21T05:28:06;19.42;;;12.52;;
33279;SDS011;20403;43.114;12.434;2023-08-21T05:30:32;23.90;;;13.27;;
33279;SDS011;20403;43.114;12.434;2023-08-21T05:32:57;30.40;;;11.80;;
33279;SDS011;20403;43.114;12.434;2023-08-21T05:35:23;28.00;;;12.32;;
33279;SDS011;20403;43.114;12.434;2023-08-21T05:37:48;23.77;;;11.32;;
33279;SDS011;20403;43.114;12.434;2023-08-21T05:40:14;25.67;;;12.25;;
33279;SDS011;20403;43.114;12.434;2023-08-21T05:42:39;19.27;;;13.07;;
33279;SDS011;20403;43.114;12.434;2023-08-21T05:45:05;19.55;;;12.18;;
33279;SDS011;20403;43.114;12.434;2023-08-21T05:47:31;18.48;;;11.32;;
33279;SDS011;20403;43.114;12.434;2023-08-21T05:49:56;26.75;;;13.30;;
33279;SDS011;20403;43.114;12.434;2023-08-21T05:52:22;20.63;;;12.40;;
33279;SDS011;20403;43.114;12.434;2023-08-21T05:54:47;21.38;;;12.82;;
33279;SDS011;20403;43.114;12.434;2023-08-21T05:57:13;18.85;;;12.65;;
33279;SDS011;20403;43.114;12.434;2023-08-21T05:59:43;18.67;;;12.40;;
33279;SDS011;20403;43.114;12.434;2023-08-21T06:02:09;17.80;;;12.55;;
33279;SDS011;20403;43.114;12.434;2023-08-21T06:04:36;19.10;;;12.20;;
33279;SDS011;20403;43.114;12.434;2023-08-21T06:07:02;19.38;;;12.13;;
33279;SDS011;20403;43.114;12.434;2023-08-21T06:09:28;25.65;;;14.20;;
33279;SDS011;20403;43.114;12.434;2023-08-21T06:11:54;15.90;;;11.93;;
33279;SDS011;20403;43.114;12.434;2023-08-21T06:14:20;16.08;;;11.70;;
33279;SDS011;20403;43.114;12.434;2023-08-21T06:16:53;22.83;;;11.95;;
33279;SDS011;20403;43.114;12.434;2023-08-21T06:19:18;29.15;;;13.73;;
33279;SDS011;20403;43.114;12.434;2023-08-21T06:21:44;16.85;;;11.85;;
33279;SDS011;20403;43.114;12.434;2023-08-21T06:24:09;16.67;;;11.52;;
33279;SDS011;20403;43.114;12.434;2023-08-21T06:26:35;14.20;;;11.68;;
33279;SDS011;20403;43.114;12.434;2023-08-21T06:29:00;17.98;;;10.98;;
33279;SDS011;20403;43.114;12.434;2023-08-21T06:31:26;16.15;;;10.50;;
33279;SDS011;20403;43.114;12.434;2023-08-21T06:33:51;18.95;;;11.40;;
33279;SDS011;20403;43.114;12.434;2023-08-21T06:36:16;14.35;;;10.88;;
33279;SDS011;20403;43.114;12.434;2023-08-21T06:38:42;18.50;;;10.32;;
33279;SDS011;20403;43.114;12.434;2023-08-21T06:41:09;13.07;;;11.15;;
33279;SDS011;20403;43.114;12.434;2023-08-21T06:43:34;18.60;;;10.85;;
33279;SDS011;20403;43.114;12.434;2023-08-21T06:46:00;13.43;;;10.57;;
33279;SDS011;20403;43.114;12.434;2023-08-21T06:48:26;15.05;;;11.00;;
33279;SDS011;20403;43.114;12.434;2023-08-21T06:50:51;15.02;;;10.85;;
33279;SDS011;20403;43.114;12.434;2023-08-21T06:53:16;13.88;;;10.13;;
33279;SDS011;20403;43.114;12.434;2023-08-21T06:55:44;17.67;;;10.68;;
33279;SDS011;20403;43.114;12.434;2023-08-21T06:58:10;13.27;;;10.05;;
33279;SDS011;20403;43.114;12.434;2023-08-21T07:00:35;12.90;;;9.70;;
33279;SDS011;20403;43.114;12.434;2023-08-21T07:03:00;15.77;;;9.55;;
33279;SDS011;20403;43.114;12.434;2023-08-21T07:05:26;13.55;;;9.48;;
33279;SDS011;20403;43.114;12.434;2023-08-21T07:07:51;19.40;;;9.88;;
33279;SDS011;20403;43.114;12.434;2023-08-21T07:10:18;15.23;;;10.35;;
33279;SDS011;20403;43.114;12.434;2023-08-21T07:12:43;14.75;;;9.27;;
33279;SDS011;20403;43.114;12.434;2023-08-21T07:15:09;14.52;;;9.15;;
33279;SDS011;20403;43.114;12.434;2023-08-21T07:17:35;12.70;;;9.55;;
33279;SDS011;20403;43.114;12.434;2023-08-21T07:20:00;18.27;;;8.75;;
33279;SDS011;20403;43.114;12.434;2023-08-21T07:22:25;14.10;;;8.55;;
33279;SDS011;20403;43.114;12.434;2023-08-21T07:24:51;17.48;;;8.20;;
33279;SDS011;20403;43.114;12.434;2023-08-21T07:27:17;14.10;;;8.98;;
33279;SDS011;20403;43.114;12.434;2023-08-21T07:29:42;11.73;;;8.48;;
33279;SDS011;20403;43.114;12.434;2023-08-21T07:32:07;11.65;;;8.43;;
33279;SDS011;20403;43.114;12.434;2023-08-21T07:34:33;11.38;;;7.95;;
33279;SDS011;20403;43.114;12.434;2023-08-21T07:36:58;15.57;;;8.15;;
33279;SDS011;20403;43.114;12.434;2023-08-21T07:39:23;14.40;;;8.43;;
33279;SDS011;20403;43.114;12.434;2023-08-21T07:41:49;10.52;;;8.32;;
33279;SDS011;20403;43.114;12.434;2023-08-21T07:44:14;13.98;;;8.60;;
33279;SDS011;20403;43.114;12.434;2023-08-21T07:46:40;16.80;;;7.68;;
33279;SDS011;20403;43.114;12.434;2023-08-21T07:49:05;13.52;;;7.60;;
33279;SDS011;20403;43.114;12.434;2023-08-21T07:51:30;14.38;;;8.23;;
33279;SDS011;20403;43.114;12.434;2023-08-21T07:53:56;11.68;;;7.60;;
33279;SDS011;20403;43.114;12.434;2023-08-21T07:56:21;11.82;;;7.40;;
33279;SDS011;20403;43.114;12.434;2023-08-21T07:58:47;13.80;;;7.30;;
33279;SDS011;20403;43.114;12.434;2023-08-21T08:01:12;10.02;;;7.00;;
33279;SDS011;20403;43.114;12.434;2023-08-21T08:03:37;12.90;;;7.30;;
33279;SDS011;20403;43.114;12.434;2023-08-21T08:06:03;11.10;;;7.10;;
33279;SDS011;20403;43.114;12.434;2023-08-21T08:08:28;10.68;;;7.50;;
33279;SDS011;20403;43.114;12.434;2023-08-21T08:10:54;12.25;;;6.70;;
33279;SDS011;20403;43.114;12.434;2023-08-21T08:13:19;9.15;;;7.03;;
33279;SDS011;20403;43.114;12.434;2023-08-21T08:15:45;8.07;;;6.68;;
33279;SDS011;20403;43.114;12.434;2023-08-21T08:18:11;7.75;;;6.40;;
33279;SDS011;20403;43.114;12.434;2023-08-21T08:20:37;7.90;;;6.47;;
33279;SDS011;20403;43.114;12.434;2023-08-21T08:23:03;8.65;;;6.47;;
33279;SDS011;20403;43.114;12.434;2023-08-21T08:25:28;10.80;;;7.18;;
33279;SDS011;20403;43.114;12.434;2023-08-21T08:27:54;8.43;;;6.25;;
33279;SDS011;20403;43.114;12.434;2023-08-21T08:30:19;10.40;;;6.30;;
33279;SDS011;20403;43.114;12.434;2023-08-21T08:32:45;9.88;;;6.90;;
33279;SDS011;20403;43.114;12.434;2023-08-21T08:35:13;10.55;;;5.75;;
33279;SDS011;20403;43.114;12.434;2023-08-21T08:37:40;10.18;;;6.55;;
33279;SDS011;20403;43.114;12.434;2023-08-21T08:40:06;9.50;;;6.38;;
33279;SDS011;20403;43.114;12.434;2023-08-21T08:42:32;9.30;;;6.35;;
33279;SDS011;20403;43.114;12.434;2023-08-21T08:44:59;10.38;;;6.40;;
33279;SDS011;20403;43.114;12.434;2023-08-21T08:47:29;8.43;;;5.60;;
33279;SDS011;20403;43.114;12.434;2023-08-21T08:49:56;13.95;;;6.57;;
33279;SDS011;20403;43.114;12.434;2023-08-21T08:52:25;12.13;;;6.15;;
33279;SDS011;20403;43.114;12.434;2023-08-21T08:54:51;18.02;;;6.00;;
33279;SDS011;20403;43.114;12.434;2023-08-21T08:57:18;9.07;;;5.78;;
33279;SDS011;20403;43.114;12.434;2023-08-21T08:59:44;15.40;;;5.85;;
33279;SDS011;20403;43.114;12.434;2023-08-21T09:02:09;14.05;;;6.18;;
33279;SDS011;20403;43.114;12.434;2023-08-21T09:04:34;13.93;;;5.68;;
33279;SDS011;20403;43.114;12.434;2023-08-21T09:07:09;8.90;;;5.88;;
33279;SDS011;20403;43.114;12.434;2023-08-21T09:09:40;9.35;;;5.70;;
33279;SDS011;20403;43.114;12.434;2023-08-21T09:12:09;6.80;;;5.45;;
33279;SDS011;20403;43.114;12.434;2023-08-21T09:14:37;10.48;;;5.22;;
33279;SDS011;20403;43.114;12.434;2023-08-21T09:17:03;10.32;;;5.50;;
33279;SDS011;20403;43.114;12.434;2023-08-21T09:19:29;13.48;;;4.82;;
33279;SDS011;20403;43.114;12.434;2023-08-21T09:21:54;29.52;;;6.75;;
33279;SDS011;20403;43.114;12.434;2023-08-21T09:24:20;14.82;;;5.85;;
33279;SDS011;20403;43.114;12.434;2023-08-21T09:26:45;9.57;;;5.30;;
33279;SDS011;20403;43.114;12.434;2023-08-21T09:29:10;10.63;;;4.90;;
33279;SDS011;20403;43.114;12.434;2023-08-21T09:31:36;9.43;;;5.03;;
33279;SDS011;20403;43.114;12.434;2023-08-21T09:34:02;6.40;;;4.55;;
33279;SDS011;20403;43.114;12.434;2023-08-21T09:36:31;10.87;;;4.83;;
33279;SDS011;20403;43.114;12.434;2023-08-21T09:38:58;14.85;;;5.53;;
33279;SDS011;20403;43.114;12.434;2023-08-21T09:41:23;6.55;;;4.80;;
33279;SDS011;20403;43.114;12.434;2023-08-21T09:43:50;9.13;;;5.13;;
33279;SDS011;20403;43.114;12.434;2023-08-21T09:46:16;9.10;;;4.70;;
33279;SDS011;20403;43.114;12.434;2023-08-21T09:48:45;5.93;;;4.70;;
33279;SDS011;20403;43.114;12.434;2023-08-21T09:51:12;7.80;;;4.70;;
33279;SDS011;20403;43.114;12.434;2023-08-21T09:53:37;7.20;;;5.03;;
33279;SDS011;20403;43.114;12.434;2023-08-21T09:56:04;8.60;;;4.90;;
33279;SDS011;20403;43.114;12.434;2023-08-21T09:58:30;6.32;;;4.72;;
33279;SDS011;20403;43.114;12.434;2023-08-21T10:00:57;11.05;;;4.90;;
33279;SDS011;20403;43.114;12.434;2023-08-21T10:03:23;8.52;;;4.90;;
33279;SDS011;20403;43.114;12.434;2023-08-21T10:05:49;6.97;;;4.40;;
33279;SDS011;20403;43.114;12.434;2023-08-21T10:08:17;7.45;;;4.88;;
33279;SDS011;20403;43.114;12.434;2023-08-21T10:10:46;13.43;;;5.15;;
33279;SDS011;20403;43.114;12.434;2023-08-21T10:13:11;9.85;;;5.25;;
33279;SDS011;20403;43.114;12.434;2023-08-21T10:15:37;9.63;;;5.03;;
33279;SDS011;20403;43.114;12.434;2023-08-21T10:21:13;9.57;;;4.97;;
33279;SDS011;20403;43.114;12.434;2023-08-21T10:23:39;9.57;;;4.80;;
33279;SDS011;20403;43.114;12.434;2023-08-21T10:26:05;12.13;;;5.03;;
33279;SDS011;20403;43.114;12.434;2023-08-21T10:31:25;10.02;;;5.10;;
33279;SDS011;20403;43.114;12.434;2023-08-21T10:33:54;10.05;;;4.88;;
33279;SDS011;20403;43.114;12.434;2023-08-21T10:36:39;9.50;;;3.97;;
33279;SDS011;20403;43.114;12.434;2023-08-21T10:39:14;7.85;;;4.97;;
33279;SDS011;20403;43.114;12.434;2023-08-21T10:41:53;14.52;;;4.95;;
33279;SDS011;20403;43.114;12.434;2023-08-21T10:49:49;6.68;;;4.63;;
33279;SDS011;20403;43.114;12.434;2023-08-21T10:54:55;5.63;;;4.35;;
33279;SDS011;20403;43.114;12.434;2023-08-21T10:57:26;5.25;;;4.00;;
33279;SDS011;20403;43.114;12.434;2023-08-21T10:59:56;19.15;;;5.47;;
33279;SDS011;20403;43.114;12.434;2023-08-21T11:02:24;11.00;;;4.72;;
33279;SDS011;20403;43.114;12.434;2023-08-21T11:04:54;7.72;;;4.72;;
33279;SDS011;20403;43.114;12.434;2023-08-21T11:07:20;7.40;;;4.45;;
33279;SDS011;20403;43.114;12.434;2023-08-21T11:09:46;10.10;;;4.95;;
33279;SDS011;20403;43.114;12.434;2023-08-21T11:12:14;9.15;;;4.53;;
33279;SDS011;20403;43.114;12.434;2023-08-21T11:14:41;8.88;;;4.50;;
33279;SDS011;20403;43.114;12.434;2023-08-21T11:17:08;6.75;;;4.15;;
33279;SDS011;20403;43.114;12.434;2023-08-21T11:19:34;9.00;;;4.18;;
33279;SDS011;20403;43.114;12.434;2023-08-21T11:22:00;10.27;;;5.05;;
33279;SDS011;20403;43.114;12.434;2023-08-21T11:27:06;7.72;;;4.25;;
33279;SDS011;20403;43.114;12.434;2023-08-21T11:29:37;7.80;;;4.38;;
33279;SDS011;20403;43.114;12.434;2023-08-21T11:32:07;6.95;;;4.57;;
33279;SDS011;20403;43.114;12.434;2023-08-21T11:34:42;6.35;;;4.68;;
33279;SDS011;20403;43.114;12.434;2023-08-21T11:37:13;7.13;;;4.65;;
33279;SDS011;20403;43.114;12.434;2023-08-21T11:39:39;8.65;;;4.55;;
33279;SDS011;20403;43.114;12.434;2023-08-21T11:42:08;8.75;;;4.30;;
33279;SDS011;20403;43.114;12.434;2023-08-21T11:44:46;6.50;;;4.53;;
33279;SDS011;20403;43.114;12.434;2023-08-21T11:47:13;9.52;;;4.32;;
33279;SDS011;20403;43.114;12.434;2023-08-21T11:49:40;12.35;;;5.05;;
33279;SDS011;20403;43.114;12.434;2023-08-21T11:52:07;8.70;;;4.30;;
33279;SDS011;20403;43.114;12.434;2023-08-21T11:54:33;7.30;;;4.57;;
33279;SDS011;20403;43.114;12.434;2023-08-21T11:57:00;8.77;;;4.47;;
33279;SDS011;20403;43.114;12.434;2023-08-21T11:59:29;9.18;;;4.88;;
33279;SDS011;20403;43.114;12.434;2023-08-21T12:01:55;6.38;;;4.70;;
33279;SDS011;20403;43.114;12.434;2023-08-21T12:04:20;11.07;;;5.15;;
33279;SDS011;20403;43.114;12.434;2023-08-21T12:06:46;10.02;;;4.75;;
33279;SDS011;20403;43.114;12.434;2023-08-21T12:09:12;7.00;;;4.47;;
33279;SDS011;20403;43.114;12.434;2023-08-21T12:11:37;8.02;;;4.35;;
33279;SDS011;20403;43.114;12.434;2023-08-21T12:14:05;5.78;;;4.70;;
33279;SDS011;20403;43.114;12.434;2023-08-21T12:16:31;13.13;;;4.32;;
33279;SDS011;20403;43.114;12.434;2023-08-21T12:18:57;6.97;;;4.30;;
33279;SDS011;20403;43.114;12.434;2023-08-21T12:21:25;5.90;;;4.28;;
33279;SDS011;20403;43.114;12.434;2023-08-21T12:23:51;9.85;;;4.30;;
33279;SDS011;20403;43.114;12.434;2023-08-21T12:26:16;8.07;;;4.38;;
33279;SDS011;20403;43.114;12.434;2023-08-21T12:28:46;5.07;;;4.13;;
33279;SDS011;20403;43.114;12.434;2023-08-21T12:31:14;4.97;;;4.28;;
33279;SDS011;20403;43.114;12.434;2023-08-21T12:33:40;4.60;;;4.20;;
33279;SDS011;20403;43.114;12.434;2023-08-21T12:36:05;7.18;;;4.07;;
33279;SDS011;20403;43.114;12.434;2023-08-21T12:38:31;5.68;;;4.25;;
33279;SDS011;20403;43.114;12.434;2023-08-21T12:40:57;6.95;;;4.28;;
33279;SDS011;20403;43.114;12.434;2023-08-21T12:43:23;7.53;;;4.63;;
33279;SDS011;20403;43.114;12.434;2023-08-21T12:45:48;9.05;;;4.07;;
33279;SDS011;20403;43.114;12.434;2023-08-21T12:48:14;11.70;;;4.65;;
33279;SDS011;20403;43.114;12.434;2023-08-21T12:50:39;5.55;;;4.38;;
33279;SDS011;20403;43.114;12.434;2023-08-21T12:53:05;9.43;;;4.63;;
33279;SDS011;20403;43.114;12.434;2023-08-21T12:55:30;6.85;;;4.38;;
33279;SDS011;20403;43.114;12.434;2023-08-21T12:57:56;6.10;;;4.22;;
33279;SDS011;20403;43.114;12.434;2023-08-21T13:00:22;7.47;;;4.70;;
33279;SDS011;20403;43.114;12.434;2023-08-21T13:02:47;10.10;;;3.95;;
33279;SDS011;20403;43.114;12.434;2023-08-21T13:05:13;5.45;;;4.15;;
33279;SDS011;20403;43.114;12.434;2023-08-21T13:07:39;11.15;;;4.22;;
33279;SDS011;20403;43.114;12.434;2023-08-21T13:10:06;5.50;;;3.90;;
33279;SDS011;20403;43.114;12.434;2023-08-21T13:12:32;10.23;;;4.55;;
33279;SDS011;20403;43.114;12.434;2023-08-21T13:14:57;9.05;;;4.25;;
33279;SDS011;20403;43.114;12.434;2023-08-21T13:17:23;13.82;;;4.20;;
33279;SDS011;20403;43.114;12.434;2023-08-21T13:19:49;5.78;;;4.00;;
33279;SDS011;20403;43.114;12.434;2023-08-21T13:22:16;6.05;;;4.15;;
33279;SDS011;20403;43.114;12.434;2023-08-21T13:24:42;6.25;;;4.10;;
33279;SDS011;20403;43.114;12.434;2023-08-21T13:27:08;7.13;;;4.70;;
33279;SDS011;20403;43.114;12.434;2023-08-21T13:29:33;11.43;;;4.82;;
33279;SDS011;20403;43.114;12.434;2023-08-21T13:31:59;7.40;;;4.45;;
33279;SDS011;20403;43.114;12.434;2023-08-21T13:34:24;9.40;;;4.80;;
33279;SDS011;20403;43.114;12.434;2023-08-21T13:36:49;8.70;;;5.60;;
33279;SDS011;20403;43.114;12.434;2023-08-21T13:39:15;7.93;;;4.20;;
33279;SDS011;20403;43.114;12.434;2023-08-21T13:41:41;10.95;;;4.75;;
33279;SDS011;20403;43.114;12.434;2023-08-21T13:44:06;5.75;;;4.07;;
33279;SDS011;20403;43.114;12.434;2023-08-21T13:46:33;7.93;;;4.20;;
33279;SDS011;20403;43.114;12.434;2023-08-21T13:48:59;9.77;;;4.30;;
33279;SDS011;20403;43.114;12.434;2023-08-21T13:51:24;12.80;;;4.57;;
33279;SDS011;20403;43.114;12.434;2023-08-21T13:53:50;7.18;;;3.83;;
33279;SDS011;20403;43.114;12.434;2023-08-21T13:56:15;10.20;;;4.32;;
33279;SDS011;20403;43.114;12.434;2023-08-21T13:58:41;5.18;;;4.47;;
33279;SDS011;20403;43.114;12.434;2023-08-21T14:01:06;9.18;;;3.90;;
33279;SDS011;20403;43.114;12.434;2023-08-21T14:03:33;6.72;;;4.10;;
33279;SDS011;20403;43.114;12.434;2023-08-21T14:05:58;7.53;;;4.07;;
33279;SDS011;20403;43.114;12.434;2023-08-21T14:08:24;8.35;;;4.25;;
33279;SDS011;20403;43.114;12.434;2023-08-21T14:10:50;6.78;;;4.57;;
33279;SDS011;20403;43.114;12.434;2023-08-21T14:13:15;8.70;;;4.43;;
33279;SDS011;20403;43.114;12.434;2023-08-21T14:15:41;8.98;;;4.38;;
33279;SDS011;20403;43.114;12.434;2023-08-21T14:18:07;5.18;;;4.60;;
33279;SDS011;20403;43.114;12.434;2023-08-21T14:20:32;8.73;;;4.90;;
33279;SDS011;20403;43.114;12.434;2023-08-21T14:22:58;7.47;;;4.55;;
33279;SDS011;20403;43.114;12.434;2023-08-21T14:25:23;9.20;;;5.13;;
33279;SDS011;20403;43.114;12.434;2023-08-21T14:27:49;8.85;;;4.55;;
33279;SDS011;20403;43.114;12.434;2023-08-21T14:30:14;6.55;;;4.32;;
33279;SDS011;20403;43.114;12.434;2023-08-21T14:32:40;11.43;;;4.63;;
33279;SDS011;20403;43.114;12.434;2023-08-21T14:35:06;7.60;;;4.82;;
33279;SDS011;20403;43.114;12.434;2023-08-21T14:37:35;8.63;;;4.28;;